createdAt,value
2019-03-03T00:00:39.166Z,30.73
2019-03-03T00:03:07.742Z,35.13
2019-03-03T00:05:36.380Z,32.33
2019-03-03T00:08:04.956Z,38.13
2019-03-03T00:10:33.450Z,35.07
2019-03-03T00:13:01.896Z,29.93
2019-03-03T00:15:30.404Z,32.33
2019-03-03T00:17:59.183Z,31.00
2019-03-03T00:20:27.694Z,26.90
2019-03-03T00:22:56.199Z,35.97
2019-03-03T00:25:24.753Z,30.17
2019-03-03T00:27:53.267Z,25.70
2019-03-03T00:30:22.795Z,23.73
2019-03-03T00:32:51.374Z,27.07
2019-03-03T00:35:19.970Z,24.27
2019-03-03T00:37:50.183Z,28.10
2019-03-03T00:40:29.486Z,25.40
2019-03-03T00:43:15.685Z,26.97
2019-03-03T00:45:45.835Z,28.87
2019-03-03T00:48:25.219Z,22.13
2019-03-03T00:50:58.352Z,23.63
2019-03-03T00:53:28.409Z,24.57
2019-03-03T00:56:00.928Z,26.13
2019-03-03T00:58:36.855Z,22.67
2019-03-03T01:01:09.979Z,21.13
2019-03-03T01:03:40.084Z,19.87
2019-03-03T01:06:12.709Z,20.13
2019-03-03T01:08:42.987Z,19.77
2019-03-03T01:11:27.832Z,20.63
2019-03-03T01:13:57.926Z,18.30
2019-03-03T01:16:30.464Z,23.00
2019-03-03T01:19:16.940Z,21.50
2019-03-03T01:21:49.679Z,19.33
2019-03-03T01:24:28.538Z,19.10
2019-03-03T01:26:57.035Z,19.20
2019-03-03T01:29:26.379Z,15.10
2019-03-03T01:31:55.327Z,18.80
2019-03-03T01:34:23.812Z,20.37
2019-03-03T01:36:53.989Z,19.90
2019-03-03T01:39:22.553Z,15.87
2019-03-03T01:41:51.033Z,18.47
2019-03-03T01:44:19.482Z,17.00
2019-03-03T01:46:48.049Z,16.03
2019-03-03T01:49:16.586Z,14.43
2019-03-03T01:51:45.170Z,14.33
2019-03-03T01:54:13.713Z,17.87
2019-03-03T01:56:42.386Z,14.83
2019-03-03T01:59:10.819Z,18.13
2019-03-03T02:01:39.289Z,19.33
2019-03-03T02:04:07.744Z,21.80
2019-03-03T02:06:36.170Z,23.70
2019-03-03T02:09:08.131Z,23.63
2019-03-03T02:11:36.551Z,15.50
2019-03-03T02:14:05.203Z,16.80
2019-03-03T02:16:33.612Z,17.87
2019-03-03T02:19:02.065Z,22.53
2019-03-03T02:21:30.456Z,18.73
2019-03-03T02:23:59.029Z,21.53
2019-03-03T02:26:27.549Z,19.17
2019-03-03T02:28:56.055Z,19.40
2019-03-03T02:31:24.488Z,15.20
2019-03-03T02:33:53.168Z,19.90
2019-03-03T02:36:21.614Z,21.20
2019-03-03T02:38:50.036Z,15.10
2019-03-03T02:41:18.520Z,21.77
2019-03-03T02:43:46.979Z,15.80
2019-03-03T02:46:15.399Z,21.23
2019-03-03T02:48:43.821Z,15.93
2019-03-03T02:51:12.315Z,13.57
2019-03-03T02:53:40.764Z,17.20
2019-03-03T02:56:09.211Z,15.83
2019-03-03T02:58:37.638Z,15.00
2019-03-03T03:01:22.709Z,13.93
2019-03-03T03:03:51.145Z,16.23
2019-03-03T03:06:21.198Z,15.23
2019-03-03T03:09:07.345Z,14.57
2019-03-03T03:11:40.381Z,11.33
2019-03-03T03:14:12.857Z,16.60
2019-03-03T03:16:59.217Z,17.77
2019-03-03T03:19:44.519Z,15.03
2019-03-03T03:22:14.559Z,15.30
2019-03-03T03:24:44.660Z,13.90
2019-03-03T03:27:17.392Z,14.13
2019-03-03T03:29:47.484Z,15.93
2019-03-03T03:32:17.587Z,20.20
2019-03-03T03:34:47.640Z,17.60
2019-03-03T03:37:26.628Z,12.70
2019-03-03T03:39:56.672Z,15.40
2019-03-03T03:42:26.714Z,23.43
2019-03-03T03:44:56.883Z,15.00
2019-03-03T03:47:30.034Z,16.23
2019-03-03T03:50:00.230Z,19.00
2019-03-03T03:52:42.309Z,20.33
2019-03-03T03:55:14.873Z,19.87
2019-03-03T03:58:01.176Z,20.17
2019-03-03T04:00:31.310Z,18.57
2019-03-03T04:03:17.880Z,16.10
2019-03-03T04:05:47.988Z,12.70
2019-03-03T04:08:27.105Z,17.10
2019-03-03T04:10:59.593Z,16.50
2019-03-03T04:13:32.766Z,13.07
2019-03-03T04:16:11.988Z,12.30
2019-03-03T04:18:50.696Z,15.90
2019-03-03T04:21:23.172Z,11.63
2019-03-03T04:23:59.407Z,15.73
2019-03-03T04:26:29.490Z,14.80
2019-03-03T04:29:05.565Z,12.30
2019-03-03T04:31:44.784Z,14.23
2019-03-03T04:34:26.921Z,10.97
2019-03-03T04:36:56.981Z,9.53
2019-03-03T04:39:27.046Z,12.87
2019-03-03T04:41:57.139Z,10.17
2019-03-03T04:44:29.717Z,8.77
2019-03-03T04:47:18.145Z,6.97
2019-03-03T04:49:48.196Z,9.90
2019-03-03T04:52:21.096Z,9.00
2019-03-03T04:54:51.164Z,8.70
2019-03-03T04:57:23.920Z,7.10
2019-03-03T05:00:03.027Z,10.30
2019-03-03T05:02:33.109Z,8.00
2019-03-03T05:05:05.945Z,10.73
2019-03-03T05:07:36.062Z,9.97
2019-03-03T05:10:14.925Z,12.50
2019-03-03T05:12:57.352Z,8.33
2019-03-03T05:15:27.457Z,16.03
2019-03-03T05:17:58.188Z,9.90
2019-03-03T05:20:28.247Z,9.83
2019-03-03T05:22:56.746Z,7.87
2019-03-03T05:25:25.190Z,9.07
2019-03-03T05:27:53.605Z,7.37
2019-03-03T05:30:22.019Z,7.63
2019-03-03T05:32:50.507Z,7.30
2019-03-03T05:35:18.922Z,7.97
2019-03-03T05:37:47.338Z,10.70
2019-03-03T05:40:15.795Z,12.97
2019-03-03T05:42:44.186Z,9.80
2019-03-03T05:45:12.659Z,10.60
2019-03-03T05:47:41.103Z,10.53
2019-03-03T05:50:09.665Z,12.87
2019-03-03T05:52:38.145Z,10.37
2019-03-03T05:55:07.218Z,10.17
2019-03-03T05:57:35.639Z,9.73
2019-03-03T06:00:06.528Z,14.00
2019-03-03T06:02:34.937Z,15.50
2019-03-03T06:05:03.535Z,12.63
2019-03-03T06:07:31.961Z,12.83
2019-03-03T06:10:00.383Z,19.87
2019-03-03T06:12:29.887Z,12.67
2019-03-03T06:14:58.311Z,16.93
2019-03-03T06:17:26.736Z,13.57
2019-03-03T06:19:55.267Z,13.80
2019-03-03T06:22:23.698Z,12.43
2019-03-03T06:24:52.124Z,15.97
2019-03-03T06:27:20.571Z,10.43
2019-03-03T06:29:48.978Z,11.10
2019-03-03T06:32:17.411Z,15.60
2019-03-03T06:34:45.868Z,8.43
2019-03-03T06:37:14.280Z,15.50
2019-03-03T06:39:42.704Z,12.70
2019-03-03T06:42:11.113Z,13.30
2019-03-03T06:44:39.543Z,12.53
2019-03-03T06:47:08.377Z,11.50
2019-03-03T06:49:36.811Z,16.93
2019-03-03T06:52:05.308Z,14.53
2019-03-03T06:54:33.725Z,14.47
2019-03-03T06:57:02.132Z,16.27
2019-03-03T06:59:30.574Z,13.20
2019-03-03T07:01:58.992Z,9.73
2019-03-03T07:04:27.403Z,15.27
2019-03-03T07:06:55.843Z,8.57
2019-03-03T07:09:24.309Z,15.70
2019-03-03T07:11:52.761Z,8.60
2019-03-03T07:14:21.183Z,14.87
2019-03-03T07:16:49.627Z,13.80
2019-03-03T07:19:18.045Z,13.53
2019-03-03T07:21:46.472Z,12.73
2019-03-03T07:24:14.931Z,13.43
2019-03-03T07:26:43.405Z,10.20
2019-03-03T07:29:11.998Z,13.50
2019-03-03T07:31:40.352Z,15.80
2019-03-03T07:34:08.796Z,15.40
2019-03-03T07:36:37.229Z,10.17
2019-03-03T07:39:08.680Z,15.27
2019-03-03T07:41:37.125Z,15.67
2019-03-03T07:44:05.545Z,14.03
2019-03-03T07:46:33.964Z,12.33
2019-03-03T07:49:02.544Z,11.67
2019-03-03T07:51:30.965Z,10.17
2019-03-03T07:53:59.385Z,11.00
2019-03-03T07:56:27.836Z,8.33
2019-03-03T07:58:56.257Z,8.97
2019-03-03T08:01:24.691Z,11.33
2019-03-03T08:03:53.214Z,14.33
2019-03-03T08:06:21.639Z,13.03
2019-03-03T08:08:50.170Z,9.97
2019-03-03T08:11:18.583Z,9.67
2019-03-03T08:13:47.026Z,12.67
2019-03-03T08:16:15.470Z,11.93
2019-03-03T08:18:43.887Z,11.93
2019-03-03T08:21:12.342Z,13.20
2019-03-03T08:23:40.779Z,10.03
2019-03-03T08:26:09.202Z,9.00
2019-03-03T08:28:37.733Z,6.60
2019-03-03T08:31:06.161Z,15.17
2019-03-03T08:33:35.106Z,11.93
2019-03-03T08:36:03.527Z,12.33
2019-03-03T08:38:31.942Z,6.20
2019-03-03T08:41:00.415Z,11.93
2019-03-03T08:43:33.636Z,13.03
2019-03-03T08:46:15.820Z,14.73
2019-03-03T08:48:51.356Z,7.87
2019-03-03T08:51:27.163Z,9.43
2019-03-03T08:54:15.566Z,8.97
2019-03-03T08:57:01.819Z,9.67
2019-03-03T08:59:44.296Z,10.27
2019-03-03T09:02:31.134Z,17.50
2019-03-03T09:05:04.128Z,10.13
2019-03-03T09:07:34.181Z,7.63
2019-03-03T09:10:04.468Z,11.00
2019-03-03T09:12:43.497Z,12.60
2019-03-03T09:15:16.375Z,14.23
2019-03-03T09:18:03.387Z,10.37
2019-03-03T09:20:39.420Z,8.60
2019-03-03T09:23:09.769Z,7.93
2019-03-03T09:25:51.930Z,10.27
2019-03-03T09:28:34.095Z,13.17
2019-03-03T09:31:20.244Z,10.00
2019-03-03T09:34:05.267Z,13.30
2019-03-03T09:36:47.358Z,11.13
2019-03-03T09:39:17.499Z,11.87
2019-03-03T09:41:47.696Z,9.13
2019-03-03T09:44:23.567Z,11.97
2019-03-03T09:47:10.033Z,19.87
2019-03-03T09:49:43.209Z,13.87
2019-03-03T09:52:16.246Z,9.57
2019-03-03T09:54:52.590Z,15.03
2019-03-03T09:57:34.379Z,11.50
2019-03-03T10:00:09.590Z,16.67
2019-03-03T10:02:39.675Z,13.63
2019-03-03T10:05:13.017Z,9.73
2019-03-03T10:07:49.717Z,17.53
2019-03-03T10:10:23.018Z,12.77
2019-03-03T10:12:53.216Z,8.33
2019-03-03T10:15:32.266Z,10.77
2019-03-03T10:18:02.450Z,15.83
2019-03-03T10:20:41.422Z,15.47
2019-03-03T10:23:23.677Z,17.83
2019-03-03T10:25:53.849Z,14.80
2019-03-03T10:28:26.904Z,7.33
2019-03-03T10:31:02.672Z,15.57
2019-03-03T10:33:49.305Z,12.13
2019-03-03T10:36:19.376Z,10.37
2019-03-03T10:38:49.603Z,10.90
2019-03-03T10:41:28.882Z,13.57
2019-03-03T10:44:15.027Z,10.37
2019-03-03T10:46:47.867Z,8.67
2019-03-03T10:49:21.211Z,10.20
2019-03-03T10:51:53.857Z,8.70
2019-03-03T10:54:42.020Z,7.57
2019-03-03T10:57:27.130Z,7.60
2019-03-03T11:00:00.612Z,9.83
2019-03-03T11:02:33.857Z,10.50
2019-03-03T11:05:09.654Z,9.80
2019-03-03T11:07:45.529Z,8.70
2019-03-03T11:10:24.864Z,7.87
2019-03-03T11:12:55.012Z,10.40
2019-03-03T11:15:25.182Z,8.37
2019-03-03T11:18:04.205Z,7.90
2019-03-03T11:20:52.988Z,9.97
2019-03-03T11:23:25.985Z,12.27
2019-03-03T11:26:12.120Z,9.80
2019-03-03T11:28:45.046Z,9.13
2019-03-03T11:31:31.307Z,7.57
2019-03-03T11:34:03.829Z,11.37
2019-03-03T11:36:36.899Z,7.53
2019-03-03T11:39:18.232Z,5.97
2019-03-03T11:41:53.999Z,9.63
2019-03-03T11:44:29.801Z,7.87
2019-03-03T11:47:08.731Z,9.03
2019-03-03T11:49:38.794Z,10.80
2019-03-03T11:52:20.847Z,9.03
2019-03-03T11:54:51.649Z,7.67
2019-03-03T11:57:24.829Z,9.30
2019-03-03T12:00:10.017Z,13.53
2019-03-03T12:02:56.718Z,10.67
2019-03-03T12:05:44.918Z,8.10
2019-03-03T12:08:15.142Z,14.43
2019-03-03T12:10:47.960Z,9.77
2019-03-03T12:13:21.236Z,9.37
2019-03-03T12:15:54.146Z,9.43
2019-03-03T12:18:30.100Z,9.60
2019-03-03T12:21:03.969Z,12.10
2019-03-03T12:23:40.165Z,10.03
2019-03-03T12:26:16.385Z,14.23
2019-03-03T12:29:04.253Z,11.20
2019-03-03T12:31:37.091Z,13.57
2019-03-03T12:34:10.067Z,11.63
2019-03-03T12:36:40.200Z,13.87
2019-03-03T12:39:11.483Z,10.63
2019-03-03T12:41:57.745Z,11.80
2019-03-03T12:44:39.640Z,13.77
2019-03-03T12:47:18.813Z,12.57
2019-03-03T12:50:00.899Z,14.83
2019-03-03T12:52:30.998Z,15.60
2019-03-03T12:55:01.070Z,12.47
2019-03-03T12:57:31.320Z,10.30
2019-03-03T13:00:13.610Z,10.00
2019-03-03T13:02:49.401Z,14.00
2019-03-03T13:05:20.024Z,10.40
2019-03-03T13:07:50.092Z,10.67
2019-03-03T13:10:38.235Z,7.63
2019-03-03T13:13:24.828Z,8.90
2019-03-03T13:16:04.058Z,8.50
2019-03-03T13:18:38.335Z,9.77
2019-03-03T13:21:15.460Z,12.03
2019-03-03T13:23:51.285Z,13.90
2019-03-03T13:26:23.887Z,13.43
2019-03-03T13:28:53.980Z,15.10
2019-03-03T13:31:26.802Z,10.27
2019-03-03T13:34:02.333Z,15.30
2019-03-03T13:36:35.201Z,20.30
2019-03-03T13:39:06.831Z,12.83
2019-03-03T13:41:39.737Z,15.33
2019-03-03T13:44:08.332Z,12.03
2019-03-03T13:46:36.741Z,10.53
2019-03-03T13:49:05.358Z,6.33
2019-03-03T13:51:34.109Z,14.87
2019-03-03T13:54:03.130Z,9.07
2019-03-03T13:56:31.584Z,9.80
2019-03-03T13:59:00.241Z,15.03
2019-03-03T14:01:29.362Z,11.30
2019-03-03T14:04:01.835Z,14.53
2019-03-03T14:06:30.705Z,10.17
2019-03-03T14:08:59.386Z,11.63
2019-03-03T14:11:32.112Z,8.23
2019-03-03T14:14:01.597Z,13.53
2019-03-03T14:16:31.055Z,14.53
2019-03-03T14:18:59.467Z,9.07
2019-03-03T14:21:28.551Z,13.10
2019-03-03T14:23:57.354Z,15.60
2019-03-03T14:26:25.843Z,11.47
2019-03-03T14:28:55.326Z,14.97
2019-03-03T14:31:23.956Z,9.97
2019-03-03T14:33:52.421Z,16.77
2019-03-03T14:36:21.355Z,8.30
2019-03-03T14:38:49.889Z,13.03
2019-03-03T14:41:18.461Z,8.67
2019-03-03T14:43:48.387Z,12.53
2019-03-03T14:46:17.479Z,14.17
2019-03-03T14:48:46.125Z,19.03
2019-03-03T14:51:14.554Z,17.60
2019-03-03T14:53:43.542Z,22.23
2019-03-03T14:56:12.079Z,12.77
2019-03-03T14:58:40.484Z,13.73
2019-03-03T15:01:09.732Z,12.43
2019-03-03T15:03:38.357Z,14.93
2019-03-03T15:06:07.128Z,9.27
2019-03-03T15:08:35.621Z,13.67
2019-03-03T15:11:04.118Z,14.30
2019-03-03T15:13:32.671Z,13.50
2019-03-03T15:16:01.176Z,14.27
2019-03-03T15:18:29.955Z,11.23
2019-03-03T15:20:58.488Z,8.97
2019-03-03T15:23:27.062Z,11.27
2019-03-03T15:25:55.928Z,8.90
2019-03-03T15:28:24.397Z,10.73
2019-03-03T15:30:52.918Z,9.40
2019-03-03T15:33:21.366Z,14.40
2019-03-03T15:35:49.797Z,10.23
2019-03-03T15:38:18.291Z,14.07
2019-03-03T15:40:46.801Z,10.37
2019-03-03T15:43:15.220Z,11.90
2019-03-03T15:45:43.995Z,11.67
2019-03-03T15:48:12.497Z,13.90
2019-03-03T15:50:40.915Z,12.20
2019-03-03T15:53:09.444Z,13.33
2019-03-03T15:55:37.877Z,14.97
2019-03-03T15:58:06.556Z,15.40
2019-03-03T16:00:40.754Z,15.33
2019-03-03T16:03:09.306Z,17.13
2019-03-03T16:05:37.793Z,13.87
2019-03-03T16:08:06.666Z,14.07
2019-03-03T16:10:35.094Z,15.23
2019-03-03T16:13:03.994Z,12.07
2019-03-03T16:15:32.666Z,13.07
2019-03-03T16:18:01.071Z,14.43
2019-03-03T16:20:29.535Z,12.67
2019-03-03T16:22:58.022Z,13.20
2019-03-03T16:25:27.494Z,15.97
2019-03-03T16:27:55.952Z,15.50
2019-03-03T16:30:25.511Z,21.50
2019-03-03T16:32:55.630Z,11.90
2019-03-03T16:35:24.103Z,9.30
2019-03-03T16:37:52.967Z,10.53
2019-03-03T16:40:25.502Z,11.80
2019-03-03T16:42:53.985Z,7.00
2019-03-03T16:45:22.751Z,9.43
2019-03-03T16:47:51.243Z,8.27
2019-03-03T16:50:21.780Z,11.37
2019-03-03T16:52:50.447Z,10.57
2019-03-03T16:55:20.485Z,11.70
2019-03-03T16:57:49.013Z,9.57
2019-03-03T17:00:20.329Z,7.50
2019-03-03T17:02:49.352Z,6.33
2019-03-03T17:05:22.777Z,6.43
2019-03-03T17:07:51.576Z,10.63
2019-03-03T17:10:20.069Z,7.13
2019-03-03T17:12:48.747Z,6.40
2019-03-03T17:15:20.175Z,6.70
2019-03-03T17:17:48.628Z,3.70
2019-03-03T17:20:17.155Z,8.73
2019-03-03T17:22:45.564Z,8.30
2019-03-03T17:25:16.650Z,6.77
2019-03-03T17:27:45.180Z,5.90
2019-03-03T17:30:16.137Z,6.17
2019-03-03T17:32:44.655Z,10.93
2019-03-03T17:35:13.248Z,7.00
2019-03-03T17:37:41.683Z,14.87
2019-03-03T17:40:16.234Z,8.53
2019-03-03T17:42:45.121Z,7.87
2019-03-03T17:45:16.335Z,7.40
2019-03-03T17:47:44.801Z,6.13
2019-03-03T17:50:16.093Z,6.33
2019-03-03T17:52:45.391Z,10.63
2019-03-03T17:55:15.871Z,6.07
2019-03-03T17:57:45.153Z,12.73
2019-03-03T18:00:27.059Z,5.60
2019-03-03T18:02:55.627Z,7.30
2019-03-03T18:05:24.085Z,5.90
2019-03-03T18:07:52.631Z,7.63
2019-03-03T18:10:21.164Z,5.40
2019-03-03T18:12:49.735Z,4.87
2019-03-03T18:15:18.778Z,6.50
2019-03-03T18:17:47.370Z,6.30
2019-03-03T18:20:23.272Z,8.23
2019-03-03T18:22:51.715Z,6.47
2019-03-03T18:25:22.087Z,7.27
2019-03-03T18:27:50.584Z,6.40
2019-03-03T18:30:24.381Z,7.03
2019-03-03T18:32:52.868Z,12.67
2019-03-03T18:35:21.622Z,6.10
2019-03-03T18:37:50.419Z,9.13
2019-03-03T18:40:21.512Z,7.33
2019-03-03T18:42:50.335Z,7.90
2019-03-03T18:45:20.440Z,5.37
2019-03-03T18:47:49.228Z,4.33
2019-03-03T18:50:25.668Z,5.20
2019-03-03T18:52:54.112Z,9.03
2019-03-03T18:55:22.678Z,7.10
2019-03-03T18:57:51.125Z,8.77
2019-03-03T19:00:25.048Z,5.27
2019-03-03T19:02:53.935Z,10.77
2019-03-03T19:05:22.568Z,7.33
2019-03-03T19:07:51.053Z,6.73
2019-03-03T19:10:27.735Z,7.43
2019-03-03T19:12:56.218Z,6.40
2019-03-03T19:15:24.735Z,9.03
2019-03-03T19:17:53.222Z,8.73
2019-03-03T19:20:22.488Z,13.83
2019-03-03T19:22:51.584Z,10.37
2019-03-03T19:25:20.397Z,6.67
2019-03-03T19:27:48.884Z,13.20
2019-03-03T19:30:22.250Z,6.57
2019-03-03T19:33:12.054Z,9.70
2019-03-03T19:35:40.489Z,6.93
2019-03-03T19:38:08.950Z,9.40
2019-03-03T19:40:37.443Z,11.03
2019-03-03T19:43:06.056Z,8.77
2019-03-03T19:45:43.244Z,9.70
2019-03-03T19:48:11.767Z,11.60
2019-03-03T19:50:40.274Z,7.50
2019-03-03T19:53:08.810Z,15.40
2019-03-03T19:55:37.385Z,9.23
2019-03-03T19:58:07.510Z,8.93
2019-03-03T20:00:39.317Z,6.50
2019-03-03T20:03:09.774Z,13.20
2019-03-03T20:05:38.347Z,8.70
2019-03-03T20:08:10.459Z,11.37
2019-03-03T20:10:39.027Z,7.97
2019-03-03T20:13:07.451Z,10.60
2019-03-03T20:15:36.900Z,11.33
2019-03-03T20:18:08.141Z,12.57
2019-03-03T20:20:39.840Z,13.00
2019-03-03T20:23:08.432Z,12.77
2019-03-03T20:25:37.085Z,20.43
2019-03-03T20:28:05.695Z,10.73
2019-03-03T20:30:34.639Z,9.50
2019-03-03T20:33:03.077Z,9.43
2019-03-03T20:35:31.572Z,12.37
2019-03-03T20:38:00.109Z,13.63
2019-03-03T20:40:30.832Z,12.20
2019-03-03T20:42:59.384Z,10.90
2019-03-03T20:45:29.948Z,11.87
2019-03-03T20:47:58.511Z,8.83
2019-03-03T20:50:27.569Z,7.90
2019-03-03T20:52:56.086Z,10.10
2019-03-03T20:55:31.975Z,10.97
2019-03-03T20:58:00.418Z,12.13
2019-03-03T21:00:32.952Z,16.73
2019-03-03T21:03:01.425Z,10.47
2019-03-03T21:05:30.043Z,10.23
2019-03-03T21:07:58.647Z,9.10
2019-03-03T21:10:29.351Z,6.13
2019-03-03T21:12:57.848Z,9.30
2019-03-03T21:15:26.343Z,9.90
2019-03-03T21:17:54.781Z,9.07
2019-03-03T21:20:24.864Z,8.13
2019-03-03T21:22:53.617Z,13.73
2019-03-03T21:25:22.202Z,11.13
2019-03-03T21:27:50.766Z,10.37
2019-03-03T21:30:24.327Z,12.23
2019-03-03T21:32:53.284Z,11.57
2019-03-03T21:35:21.826Z,14.23
2019-03-03T21:37:51.083Z,10.13
2019-03-03T21:40:24.007Z,13.83
2019-03-03T21:42:52.621Z,12.27
2019-03-03T21:45:25.736Z,11.83
2019-03-03T21:47:54.984Z,12.07
2019-03-03T21:50:25.125Z,10.73
2019-03-03T21:52:53.696Z,12.60
2019-03-03T21:55:22.208Z,12.43
2019-03-03T21:57:50.829Z,8.33
2019-03-03T22:00:31.031Z,9.23
2019-03-03T22:02:59.516Z,8.77
2019-03-03T22:05:27.994Z,9.57
2019-03-03T22:07:56.436Z,15.73
2019-03-03T22:10:32.046Z,11.90
2019-03-03T22:13:02.422Z,12.07
2019-03-03T22:15:30.935Z,9.93
2019-03-03T22:18:01.671Z,9.40
2019-03-03T22:20:30.205Z,9.57
2019-03-03T22:22:58.849Z,12.87
2019-03-03T22:25:29.022Z,13.03
2019-03-03T22:27:57.458Z,15.50
2019-03-03T22:30:25.891Z,11.00
2019-03-03T22:32:54.380Z,8.73
2019-03-03T22:35:22.825Z,13.70
2019-03-03T22:37:51.823Z,15.10
2019-03-03T22:40:24.417Z,10.17
2019-03-03T22:42:52.889Z,17.20
2019-03-03T22:45:22.162Z,14.10
2019-03-03T22:47:50.647Z,10.70
2019-03-03T22:50:22.426Z,10.40
2019-03-03T22:52:50.950Z,7.40
2019-03-03T22:55:22.491Z,8.70
2019-03-03T22:57:50.895Z,14.77
2019-03-03T23:00:44.584Z,11.30
2019-03-03T23:03:16.080Z,15.50
2019-03-03T23:05:53.393Z,11.57
2019-03-03T23:08:24.880Z,16.57
2019-03-03T23:11:02.275Z,19.27
2019-03-03T23:13:39.595Z,12.03
2019-03-03T23:16:14.120Z,12.23
2019-03-03T23:18:51.277Z,15.63
2019-03-03T23:21:31.928Z,10.43
2019-03-03T23:24:27.213Z,14.00
2019-03-03T23:26:55.658Z,10.33
2019-03-03T23:29:24.077Z,7.93
2019-03-03T23:31:52.518Z,16.43
2019-03-03T23:34:21.040Z,10.17
2019-03-03T23:36:49.544Z,13.40
2019-03-03T23:39:17.949Z,13.03
2019-03-03T23:41:46.373Z,10.63
2019-03-03T23:44:14.829Z,10.80
2019-03-03T23:46:43.255Z,10.57
2019-03-03T23:49:11.690Z,12.53
2019-03-03T23:51:40.223Z,13.33
2019-03-03T23:54:08.725Z,11.70
2019-03-03T23:56:37.169Z,8.27
2019-03-03T23:59:05.612Z,10.63
